Weather at McCarran International Airport

Public forecast

Using degrees Fahrenheit for public forecast. Weather courtesy of forecast.io.

Current aviation weather report (METAR) for McCarran International Airport

Retrieved 2022/05/23 08:56 UTC (17 minutes ago):

KLAS 230856Z 20004KT 10SM BKN250 25/M04 A2984 RMK AO2 SLP079 T02501044 53003

Aviation forecast (TAF) for McCarran International Airport

Retrieved 2022/05/23 06:22 UTC (3 hours ago):

TAF KLAS 230520Z 2306/2412 26008KT P6SM FEW250 FM231000 02008KT P6SM FEW250 FM232000 09006KT P6SM SKC FM240400 24007KT P6SM SKC